createdAt,value
2019-03-29T00:00:43.396Z,38.33
2019-03-29T00:03:15.667Z,36.83
2019-03-29T00:05:47.931Z,37.43
2019-03-29T00:08:20.280Z,39.57
2019-03-29T00:10:52.539Z,38.30
2019-03-29T00:13:24.809Z,37.60
2019-03-29T00:15:57.076Z,37.23
2019-03-29T00:18:29.425Z,38.23
2019-03-29T00:21:01.676Z,39.00
2019-03-29T00:23:33.937Z,37.07
2019-03-29T00:26:06.183Z,38.40
2019-03-29T00:28:38.440Z,37.57
2019-03-29T00:31:10.684Z,39.70
2019-03-29T00:33:42.955Z,39.33
2019-03-29T00:36:15.202Z,37.80
2019-03-29T00:38:47.580Z,41.23
2019-03-29T00:41:20.694Z,41.30
2019-03-29T00:43:52.954Z,40.80
2019-03-29T00:46:25.211Z,42.33
2019-03-29T00:48:57.486Z,43.43
2019-03-29T00:51:29.752Z,40.50
2019-03-29T00:54:02.314Z,40.20
2019-03-29T00:56:34.682Z,41.10
2019-03-29T00:59:06.952Z,40.57
2019-03-29T01:01:39.204Z,42.73
2019-03-29T01:04:11.644Z,44.13
2019-03-29T01:06:43.890Z,43.87
2019-03-29T01:09:16.163Z,43.67
2019-03-29T01:11:48.408Z,43.10
2019-03-29T01:14:20.683Z,45.03
2019-03-29T01:16:53.883Z,45.20
2019-03-29T01:19:26.301Z,49.63
2019-03-29T01:21:58.552Z,46.23
2019-03-29T01:24:30.813Z,46.70
2019-03-29T01:27:03.159Z,44.90
2019-03-29T01:29:35.434Z,46.50
2019-03-29T01:32:07.691Z,45.07
2019-03-29T01:34:39.948Z,48.80
2019-03-29T01:37:12.212Z,46.63
2019-03-29T01:39:44.469Z,45.20
2019-03-29T01:42:16.713Z,47.57
2019-03-29T01:44:48.978Z,47.37
2019-03-29T01:47:21.216Z,46.27
2019-03-29T01:49:53.488Z,46.90
2019-03-29T01:52:25.741Z,48.60
2019-03-29T01:54:58.008Z,47.97
2019-03-29T01:57:30.264Z,46.77
2019-03-29T02:00:03.750Z,47.50
2019-03-29T02:02:36.000Z,48.83
2019-03-29T02:05:08.369Z,46.60
2019-03-29T02:07:40.616Z,48.17
2019-03-29T02:10:13.082Z,47.63
2019-03-29T02:12:45.327Z,49.20
2019-03-29T02:15:17.595Z,51.37
2019-03-29T02:17:49.840Z,49.77
2019-03-29T02:20:22.104Z,48.90
2019-03-29T02:22:54.350Z,48.93
2019-03-29T02:25:26.735Z,47.23
2019-03-29T02:27:58.988Z,49.37
2019-03-29T02:30:32.243Z,48.77
2019-03-29T02:33:04.921Z,51.07
2019-03-29T02:35:38.980Z,48.00
2019-03-29T02:38:11.597Z,48.40
2019-03-29T02:40:43.847Z,53.07
2019-03-29T02:43:16.131Z,51.30
2019-03-29T02:45:48.570Z,50.63
2019-03-29T02:48:20.942Z,49.53
2019-03-29T02:50:53.296Z,49.10
2019-03-29T02:53:25.601Z,52.13
2019-03-29T02:55:57.884Z,51.03
2019-03-29T02:58:30.180Z,49.27
2019-03-29T03:01:02.550Z,49.80
2019-03-29T03:03:34.921Z,49.90
2019-03-29T03:06:07.157Z,49.50
2019-03-29T03:08:39.430Z,52.63
2019-03-29T03:11:11.788Z,51.27
2019-03-29T03:13:44.101Z,48.80
2019-03-29T03:16:16.447Z,51.17
2019-03-29T03:18:48.716Z,51.90
2019-03-29T03:21:20.980Z,52.50
2019-03-29T03:23:53.370Z,52.87
2019-03-29T03:26:25.714Z,52.23
2019-03-29T03:28:58.078Z,52.53
2019-03-29T03:31:30.337Z,50.40
2019-03-29T03:34:02.950Z,50.70
2019-03-29T03:36:35.289Z,51.00
2019-03-29T03:39:07.587Z,49.93
2019-03-29T03:41:39.821Z,50.73
2019-03-29T03:44:12.117Z,51.10
2019-03-29T03:46:44.370Z,52.00
2019-03-29T03:49:16.685Z,50.27
2019-03-29T03:51:49.229Z,49.40
2019-03-29T03:54:21.916Z,51.57
2019-03-29T03:56:54.759Z,49.00
2019-03-29T03:59:29.063Z,51.77
2019-03-29T04:02:01.494Z,50.30
2019-03-29T04:04:37.495Z,49.53
2019-03-29T04:07:07.919Z,50.67
2019-03-29T04:09:49.408Z,52.97
2019-03-29T04:12:14.376Z,49.63
2019-03-29T04:14:46.674Z,49.83
2019-03-29T04:17:18.940Z,51.87
2019-03-29T04:19:51.216Z,50.27
2019-03-29T04:22:23.464Z,49.33
2019-03-29T04:24:55.762Z,49.87
2019-03-29T04:27:28.109Z,47.10
2019-03-29T04:30:00.760Z,47.30
2019-03-29T04:32:33.273Z,49.63
2019-03-29T04:35:05.664Z,47.53
2019-03-29T04:37:38.113Z,46.30
2019-03-29T04:40:10.498Z,50.37
2019-03-29T04:42:42.744Z,49.07
2019-03-29T04:45:15.113Z,50.50
2019-03-29T04:47:47.401Z,49.57
2019-03-29T04:50:19.752Z,49.10
2019-03-29T04:52:52.077Z,48.37
2019-03-29T04:55:24.503Z,49.77
2019-03-29T04:57:56.752Z,48.40
2019-03-29T05:00:29.167Z,48.10
2019-03-29T05:03:01.529Z,47.83
2019-03-29T05:08:11.060Z,48.57
2019-03-29T05:10:43.342Z,48.27
2019-03-29T05:13:15.801Z,48.93
2019-03-29T05:15:48.094Z,46.27
2019-03-29T05:18:20.393Z,46.00
2019-03-29T05:20:52.634Z,49.30
2019-03-29T05:23:25.053Z,50.93
2019-03-29T05:25:57.375Z,49.47
2019-03-29T05:28:29.723Z,44.40
2019-03-29T05:31:02.011Z,43.90
2019-03-29T05:33:34.303Z,46.23
2019-03-29T05:36:06.613Z,47.00
2019-03-29T05:38:38.860Z,43.20
2019-03-29T05:41:11.150Z,44.13
2019-03-29T05:43:43.451Z,43.63
2019-03-29T05:46:15.826Z,44.60
2019-03-29T05:48:48.113Z,42.00
2019-03-29T05:51:20.496Z,42.07
2019-03-29T05:53:52.792Z,40.63
2019-03-29T05:56:25.085Z,41.57
2019-03-29T05:58:57.639Z,38.97
2019-03-29T06:01:30.133Z,39.87
2019-03-29T06:04:02.436Z,37.07
2019-03-29T06:06:34.791Z,39.77
2019-03-29T06:09:07.094Z,38.00
2019-03-29T06:11:39.339Z,37.60
2019-03-29T06:14:11.649Z,35.93
2019-03-29T06:16:43.900Z,36.73
2019-03-29T06:19:16.196Z,35.83
2019-03-29T06:21:48.455Z,36.60
2019-03-29T06:24:20.755Z,37.90
2019-03-29T06:26:53.020Z,34.70
2019-03-29T06:29:25.315Z,36.73
2019-03-29T06:31:57.556Z,35.77
2019-03-29T06:34:29.840Z,34.77
2019-03-29T06:37:02.331Z,34.97
2019-03-29T06:39:34.944Z,32.93
2019-03-29T06:42:07.192Z,32.83
2019-03-29T06:44:39.485Z,33.23
2019-03-29T06:47:11.735Z,30.50
2019-03-29T06:49:44.009Z,32.33
2019-03-29T06:52:16.312Z,30.70
2019-03-29T06:54:48.644Z,33.27
2019-03-29T06:57:20.945Z,33.27
2019-03-29T06:59:53.281Z,32.33
2019-03-29T07:02:25.596Z,33.30
2019-03-29T07:04:58.087Z,30.77
2019-03-29T07:07:30.355Z,29.47
2019-03-29T07:10:02.856Z,31.30
2019-03-29T07:12:35.139Z,30.57
2019-03-29T07:15:07.785Z,32.60
2019-03-29T07:17:40.075Z,30.73
2019-03-29T07:20:12.445Z,29.67
2019-03-29T07:22:44.758Z,29.83
2019-03-29T07:25:17.091Z,29.93
2019-03-29T07:27:52.251Z,29.33
2019-03-29T07:30:23.584Z,25.93
2019-03-29T07:32:55.848Z,27.70
2019-03-29T07:35:28.151Z,25.57
2019-03-29T07:38:00.465Z,25.50
2019-03-29T07:40:32.858Z,26.50
2019-03-29T07:43:05.165Z,27.07
2019-03-29T07:45:37.543Z,26.17
2019-03-29T07:48:09.811Z,27.67
2019-03-29T07:50:42.214Z,25.43
2019-03-29T07:53:14.604Z,23.90
2019-03-29T07:55:46.992Z,23.90
2019-03-29T07:58:19.319Z,23.37
2019-03-29T08:00:51.719Z,24.07
2019-03-29T08:03:23.973Z,23.80
2019-03-29T08:05:56.349Z,23.30
2019-03-29T08:08:32.218Z,24.33
2019-03-29T08:11:02.873Z,21.90
2019-03-29T08:13:35.145Z,22.33
2019-03-29T08:16:07.513Z,22.70
2019-03-29T08:18:39.795Z,22.63
2019-03-29T08:21:12.036Z,21.13
2019-03-29T08:23:44.313Z,22.20
2019-03-29T08:26:16.674Z,22.90
2019-03-29T08:28:48.945Z,21.03
2019-03-29T08:31:21.207Z,22.37
2019-03-29T08:33:53.476Z,21.77
2019-03-29T08:36:25.750Z,22.33
2019-03-29T08:38:58.027Z,20.37
2019-03-29T08:41:30.281Z,20.50
2019-03-29T08:44:02.795Z,23.17
2019-03-29T08:46:35.088Z,20.97
2019-03-29T08:49:07.382Z,20.40
2019-03-29T08:51:41.438Z,20.70
2019-03-29T08:54:13.835Z,20.67
2019-03-29T08:56:46.128Z,20.87
2019-03-29T08:59:18.419Z,20.67
2019-03-29T09:01:50.757Z,21.47
2019-03-29T09:04:23.144Z,19.67
2019-03-29T09:06:55.426Z,19.93
2019-03-29T09:09:28.756Z,20.03
2019-03-29T09:12:13.740Z,19.57
2019-03-29T09:14:35.196Z,19.30
2019-03-29T09:17:07.501Z,20.17
2019-03-29T09:19:39.751Z,18.03
2019-03-29T09:22:12.027Z,20.47
2019-03-29T09:24:44.277Z,16.53
2019-03-29T09:27:16.653Z,16.87
2019-03-29T09:29:48.998Z,18.17
2019-03-29T09:32:21.362Z,18.23
2019-03-29T09:34:53.645Z,16.30
2019-03-29T09:37:25.993Z,15.83
2019-03-29T09:39:58.275Z,18.47
2019-03-29T09:42:30.746Z,14.80
2019-03-29T09:45:03.494Z,14.70
2019-03-29T09:47:40.148Z,16.07
2019-03-29T09:50:10.999Z,16.10
2019-03-29T09:52:43.344Z,17.30
2019-03-29T09:55:18.835Z,16.70
2019-03-29T09:57:49.900Z,17.20
2019-03-29T10:00:23.579Z,15.37
2019-03-29T10:02:56.155Z,17.00
2019-03-29T10:05:31.092Z,14.93
2019-03-29T10:08:02.589Z,13.37
2019-03-29T10:10:34.992Z,12.47
2019-03-29T10:13:07.381Z,13.27
2019-03-29T10:15:39.652Z,12.53
2019-03-29T10:18:11.974Z,11.07
2019-03-29T10:20:44.369Z,10.67
2019-03-29T10:23:16.644Z,11.63
2019-03-29T10:25:48.991Z,10.33
2019-03-29T10:28:21.364Z,10.20
2019-03-29T10:30:53.607Z,9.33
2019-03-29T10:33:25.892Z,9.60
2019-03-29T10:35:58.129Z,9.00
2019-03-29T10:38:30.405Z,9.27
2019-03-29T10:41:02.673Z,8.40
2019-03-29T10:43:34.944Z,7.23
2019-03-29T10:46:07.453Z,7.47
2019-03-29T10:48:39.737Z,8.17
2019-03-29T10:51:12.024Z,7.40
2019-03-29T10:53:44.329Z,8.00
2019-03-29T10:56:16.580Z,7.43
2019-03-29T10:58:48.900Z,7.53
2019-03-29T11:01:24.433Z,6.47
2019-03-29T11:03:55.340Z,6.83
2019-03-29T11:06:27.620Z,7.77
2019-03-29T11:08:59.987Z,6.67
2019-03-29T11:11:32.244Z,5.70
2019-03-29T11:14:04.615Z,6.17
2019-03-29T11:16:36.860Z,5.00
2019-03-29T11:19:09.135Z,6.27
2019-03-29T11:21:41.404Z,4.30
2019-03-29T11:24:13.684Z,4.00
2019-03-29T11:26:45.969Z,3.90
2019-03-29T11:29:18.230Z,2.73
2019-03-29T11:31:50.567Z,3.40
2019-03-29T11:34:22.836Z,4.47
2019-03-29T11:36:55.073Z,4.03
2019-03-29T11:39:27.638Z,4.97
2019-03-29T11:42:03.321Z,5.63
2019-03-29T11:44:34.300Z,5.80
2019-03-29T11:47:06.752Z,5.27
2019-03-29T11:49:39.040Z,6.37
2019-03-29T11:52:11.404Z,5.87
2019-03-29T11:54:43.692Z,5.00
2019-03-29T11:57:15.963Z,6.80
2019-03-29T11:59:48.276Z,6.47
2019-03-29T12:02:31.235Z,6.00
2019-03-29T12:04:54.808Z,7.83
2019-03-29T12:07:27.101Z,6.43
2019-03-29T12:09:59.465Z,7.17
2019-03-29T12:12:31.830Z,6.20
2019-03-29T12:15:06.532Z,5.80
2019-03-29T12:17:38.786Z,9.00
2019-03-29T12:20:11.156Z,8.37
2019-03-29T12:22:43.528Z,9.83
2019-03-29T12:25:15.767Z,9.00
2019-03-29T12:27:48.201Z,9.67
2019-03-29T12:30:31.174Z,8.90
2019-03-29T12:32:54.798Z,9.43
2019-03-29T12:35:27.048Z,9.10
2019-03-29T12:37:59.329Z,8.40
2019-03-29T12:40:31.776Z,9.23
2019-03-29T12:43:04.232Z,9.67
2019-03-29T12:45:36.496Z,8.60
2019-03-29T12:48:09.284Z,8.57
2019-03-29T12:50:41.625Z,9.10
2019-03-29T12:53:13.889Z,7.43
2019-03-29T12:55:46.264Z,9.07
2019-03-29T12:58:18.633Z,7.73
2019-03-29T13:00:51.036Z,6.10
2019-03-29T13:03:23.422Z,6.40
2019-03-29T13:05:55.776Z,6.23
2019-03-29T13:08:28.143Z,6.57
2019-03-29T13:11:00.517Z,7.20
2019-03-29T13:13:32.778Z,6.47
2019-03-29T13:16:05.124Z,7.57
2019-03-29T13:18:37.380Z,7.83
2019-03-29T13:21:09.629Z,6.60
2019-03-29T13:23:41.901Z,6.30
2019-03-29T13:26:14.160Z,6.13
2019-03-29T13:28:46.457Z,7.07
2019-03-29T13:31:18.728Z,6.27
2019-03-29T13:33:51.022Z,6.57
2019-03-29T13:36:23.332Z,6.97
2019-03-29T13:38:55.607Z,7.00
2019-03-29T13:41:27.963Z,6.70
2019-03-29T13:44:00.220Z,10.63
2019-03-29T13:46:32.475Z,6.87
2019-03-29T13:49:04.747Z,8.60
2019-03-29T13:51:37.180Z,6.97
2019-03-29T13:54:09.471Z,6.57
2019-03-29T13:56:41.712Z,6.90
2019-03-29T13:59:13.975Z,8.67
2019-03-29T14:01:46.245Z,6.60
2019-03-29T14:04:18.532Z,6.10
2019-03-29T14:06:50.796Z,6.17
2019-03-29T14:09:23.061Z,5.80
2019-03-29T14:11:55.400Z,6.07
2019-03-29T14:14:37.585Z,7.93
2019-03-29T14:17:01.817Z,6.03
2019-03-29T14:19:34.100Z,5.67
2019-03-29T14:22:06.352Z,5.07
2019-03-29T14:24:38.606Z,5.40
2019-03-29T14:27:10.850Z,5.13
2019-03-29T14:29:43.132Z,5.43
2019-03-29T14:32:15.396Z,6.50
2019-03-29T14:34:47.672Z,7.30
2019-03-29T14:37:19.934Z,5.33
2019-03-29T14:39:52.216Z,6.10
2019-03-29T14:42:24.474Z,5.00
2019-03-29T14:44:56.747Z,6.90
2019-03-29T14:47:41.155Z,5.90
2019-03-29T14:50:04.315Z,5.80
2019-03-29T14:52:36.960Z,5.97
2019-03-29T14:55:09.394Z,5.37
2019-03-29T14:57:41.749Z,5.63
2019-03-29T15:00:14.456Z,5.43
2019-03-29T15:02:46.709Z,6.03
2019-03-29T15:05:18.975Z,6.23
2019-03-29T15:07:51.413Z,6.10
2019-03-29T15:10:25.565Z,5.90
2019-03-29T15:12:57.918Z,6.33
2019-03-29T15:15:30.170Z,6.10
2019-03-29T15:18:02.419Z,6.20
2019-03-29T15:20:34.697Z,6.33
2019-03-29T15:23:06.955Z,7.40
2019-03-29T15:25:40.799Z,8.83
2019-03-29T15:28:13.353Z,8.17
2019-03-29T15:30:45.648Z,7.20
2019-03-29T15:33:17.888Z,7.93
2019-03-29T15:35:50.155Z,7.07
2019-03-29T15:38:22.407Z,9.40
2019-03-29T15:40:54.667Z,7.70
2019-03-29T15:43:26.920Z,9.80
2019-03-29T15:45:59.212Z,9.17
2019-03-29T15:48:31.454Z,8.90
2019-03-29T15:51:03.727Z,7.87
2019-03-29T15:53:35.965Z,8.80
2019-03-29T15:56:08.233Z,7.40
2019-03-29T15:58:40.493Z,7.77
2019-03-29T16:01:12.744Z,7.17
2019-03-29T16:03:44.982Z,7.50
2019-03-29T16:06:17.231Z,7.53
2019-03-29T16:08:49.469Z,8.27
2019-03-29T16:11:22.604Z,7.93
2019-03-29T16:13:55.116Z,7.77
2019-03-29T16:16:27.388Z,7.70
2019-03-29T16:18:59.632Z,7.20
2019-03-29T16:21:31.976Z,8.30
2019-03-29T16:24:04.365Z,9.17
2019-03-29T16:26:36.774Z,10.50
2019-03-29T16:29:09.036Z,8.30
2019-03-29T16:31:41.320Z,9.33
2019-03-29T16:34:13.557Z,8.77
2019-03-29T16:36:53.933Z,6.73
2019-03-29T16:39:26.184Z,7.53
2019-03-29T16:41:58.455Z,7.23
2019-03-29T16:44:30.854Z,8.33
2019-03-29T16:47:03.351Z,8.17
2019-03-29T16:49:35.718Z,8.43
2019-03-29T16:52:07.973Z,7.50
2019-03-29T16:54:40.242Z,7.77
2019-03-29T16:57:12.568Z,7.83
2019-03-29T16:59:44.837Z,8.20
2019-03-29T17:02:17.183Z,8.23
2019-03-29T17:04:49.419Z,7.93
2019-03-29T17:07:21.697Z,8.77
2019-03-29T17:09:54.056Z,8.53
2019-03-29T17:15:13.812Z,8.23
2019-03-29T17:17:46.084Z,8.40
2019-03-29T17:20:18.325Z,8.20
2019-03-29T17:22:50.665Z,7.80
2019-03-29T17:25:23.037Z,8.27
2019-03-29T17:27:55.371Z,8.73
2019-03-29T17:30:35.830Z,8.30
2019-03-29T17:33:08.401Z,8.57
2019-03-29T17:35:40.853Z,8.97
2019-03-29T17:38:13.212Z,9.67
2019-03-29T17:40:45.515Z,9.47
2019-03-29T17:43:17.887Z,9.47
2019-03-29T17:45:50.144Z,8.27
2019-03-29T17:48:22.461Z,8.17
2019-03-29T17:50:54.743Z,8.13
2019-03-29T17:53:27.019Z,8.67
2019-03-29T17:55:59.288Z,7.73
2019-03-29T17:58:31.561Z,10.03
2019-03-29T18:01:03.919Z,11.73
2019-03-29T18:03:36.188Z,9.40
2019-03-29T18:06:12.063Z,8.97
2019-03-29T18:08:44.437Z,10.70
2019-03-29T18:11:17.947Z,10.60
2019-03-29T18:13:50.393Z,10.03
2019-03-29T18:16:30.651Z,10.93
2019-03-29T18:18:56.940Z,10.57
2019-03-29T18:21:29.248Z,10.07
2019-03-29T18:24:01.744Z,9.03
2019-03-29T18:26:34.314Z,9.13
2019-03-29T18:29:06.685Z,10.83
2019-03-29T18:31:39.535Z,10.47
2019-03-29T18:34:11.816Z,10.37
2019-03-29T18:36:45.489Z,10.50
2019-03-29T18:39:17.752Z,10.60
2019-03-29T18:41:50.011Z,10.20
2019-03-29T18:44:22.276Z,11.17
2019-03-29T18:46:54.544Z,10.93
2019-03-29T18:49:26.846Z,10.07
2019-03-29T18:51:59.305Z,10.67
2019-03-29T18:54:32.611Z,12.43
2019-03-29T18:57:04.951Z,9.80
2019-03-29T18:59:37.253Z,9.47
2019-03-29T19:02:13.582Z,8.43
2019-03-29T19:04:46.014Z,9.93
2019-03-29T19:07:26.866Z,9.30
2019-03-29T19:09:59.139Z,10.10
2019-03-29T19:12:31.399Z,10.30
2019-03-29T19:15:04.088Z,10.97
2019-03-29T19:17:36.394Z,11.90
2019-03-29T19:20:10.383Z,11.97
2019-03-29T19:22:43.165Z,13.60
2019-03-29T19:25:15.551Z,13.07
2019-03-29T19:27:48.220Z,13.33
2019-03-29T19:30:21.177Z,18.93
2019-03-29T19:32:56.296Z,13.53
2019-03-29T19:35:28.785Z,12.83
2019-03-29T19:38:01.070Z,13.30
2019-03-29T19:40:33.500Z,13.73
2019-03-29T19:43:05.831Z,15.17
2019-03-29T19:45:38.496Z,13.23
2019-03-29T19:48:11.001Z,13.80
2019-03-29T19:50:43.429Z,13.67
2019-03-29T19:53:15.796Z,15.10
2019-03-29T19:55:49.089Z,14.10
2019-03-29T19:58:21.477Z,15.30
2019-03-29T20:00:53.875Z,17.53
2019-03-29T20:03:26.243Z,16.83
2019-03-29T20:05:58.722Z,15.87
2019-03-29T20:08:31.221Z,16.97
2019-03-29T20:11:03.926Z,14.70
2019-03-29T20:13:36.538Z,17.60
2019-03-29T20:16:10.250Z,16.77
2019-03-29T20:18:43.017Z,15.37
2019-03-29T20:21:15.624Z,17.10
2019-03-29T20:23:47.984Z,17.10
2019-03-29T20:26:20.881Z,18.57
2019-03-29T20:28:53.707Z,19.30
2019-03-29T20:31:26.418Z,19.27
2019-03-29T20:33:58.883Z,21.10
2019-03-29T20:36:33.329Z,22.03
2019-03-29T20:39:06.603Z,22.23
2019-03-29T20:41:39.216Z,21.27
2019-03-29T20:44:11.601Z,20.83
2019-03-29T20:46:43.990Z,23.63
2019-03-29T20:49:16.298Z,23.07
2019-03-29T20:51:48.761Z,21.17
2019-03-29T20:54:21.161Z,22.17
2019-03-29T20:56:53.628Z,22.53
2019-03-29T20:59:26.610Z,25.40
2019-03-29T21:01:58.996Z,23.37
2019-03-29T21:04:31.413Z,24.17
2019-03-29T21:07:03.830Z,22.83
2019-03-29T21:09:36.387Z,23.90
2019-03-29T21:12:08.967Z,23.30
2019-03-29T21:14:41.365Z,24.17
2019-03-29T21:17:14.505Z,26.23
2019-03-29T21:19:47.237Z,27.80
2019-03-29T21:22:19.592Z,28.47
2019-03-29T21:24:51.947Z,30.23
2019-03-29T21:27:24.227Z,28.70
2019-03-29T21:29:56.615Z,30.33
2019-03-29T21:32:28.944Z,29.93
2019-03-29T21:35:01.308Z,29.90
2019-03-29T21:37:33.684Z,30.13
2019-03-29T21:40:07.519Z,28.53
2019-03-29T21:42:39.825Z,28.13
2019-03-29T21:45:27.718Z,34.57
2019-03-29T21:48:01.521Z,38.90
2019-03-29T21:50:21.890Z,37.57
2019-03-29T21:52:54.326Z,36.83
2019-03-29T21:55:26.588Z,30.30
2019-03-29T21:57:58.870Z,31.33
2019-03-29T22:00:31.127Z,31.70
2019-03-29T22:03:03.440Z,33.87
2019-03-29T22:05:35.696Z,33.30
2019-03-29T22:08:08.029Z,34.63
2019-03-29T22:10:40.311Z,34.80
2019-03-29T22:13:12.623Z,31.03
2019-03-29T22:15:44.885Z,28.13
2019-03-29T22:18:17.264Z,28.53
2019-03-29T22:20:49.545Z,29.37
2019-03-29T22:23:21.802Z,31.57
2019-03-29T22:25:54.081Z,28.63
2019-03-29T22:28:26.358Z,28.40
2019-03-29T22:30:58.829Z,25.77
2019-03-29T22:33:31.112Z,24.97
2019-03-29T22:36:03.361Z,25.13
2019-03-29T22:38:35.655Z,25.87
2019-03-29T22:41:07.954Z,25.63
2019-03-29T22:43:40.405Z,23.57
2019-03-29T22:46:12.650Z,24.33
2019-03-29T22:48:52.166Z,23.43
2019-03-29T22:51:19.096Z,25.30
2019-03-29T22:53:51.363Z,23.80
2019-03-29T22:56:23.708Z,24.57
2019-03-29T22:58:55.978Z,22.27
2019-03-29T23:01:35.353Z,23.57
2019-03-29T23:04:07.633Z,21.17
2019-03-29T23:06:39.976Z,22.73
2019-03-29T23:09:12.257Z,22.30
2019-03-29T23:11:44.609Z,23.53
2019-03-29T23:14:26.626Z,24.10
2019-03-29T23:16:58.941Z,21.67
2019-03-29T23:19:31.221Z,21.97
2019-03-29T23:22:03.594Z,23.00
2019-03-29T23:24:35.961Z,22.03
2019-03-29T23:27:08.219Z,23.53
2019-03-29T23:29:40.517Z,24.53
2019-03-29T23:32:12.893Z,23.00
2019-03-29T23:34:45.161Z,21.90
2019-03-29T23:37:17.419Z,23.37
2019-03-29T23:39:49.772Z,23.60
2019-03-29T23:42:22.053Z,24.10
2019-03-29T23:44:54.323Z,23.80
2019-03-29T23:47:26.580Z,23.67
2019-03-29T23:49:58.858Z,22.83
2019-03-29T23:52:31.113Z,20.53
2019-03-29T23:55:03.689Z,21.40
2019-03-29T23:57:35.923Z,22.97
